College Chase, FL

2:44 AM EST on December 03, 2016 (GMT -0500)
Bay Park, Ruskin | | Change Station

Elev 10 ft 27.73 °N, 82.42 °W | Updated 31 seconds ago

Clear
Clear
54.7 °F
Feels Like 54.7 °F
N
2.0
Wind Variable Wind from NNE

Today
High -- | Low -- °F
--% Chance of Precip.
Yesterday
High -- | Low -- °F
Precip. -- in
Pressure 30.15 in
Visibility 10.0 miles
Clouds Clear
Dew Point 47 °F
Humidity 75%
Rainfall 0.00 in
Snow Depth Not available.
7:04 AM 5:34 PM
Waxing Crescent, 13% visible
METAR KMCF 030658Z AUTO 06007KT 10SM CLR 14/06 A3014 RMK AO2 SLP209 T01350063
Pressure 30.15 in
Visibility 10.0 miles
Clouds Clear
Dew Point 47 °F
Humidity 75%
Rainfall 0.00 in
Snow Depth Not available.
7:04 AM 5:34 PM
Waxing Crescent, 13% visible
METAR KMCF 030658Z AUTO 06007KT 10SM CLR 14/06 A3014 RMK AO2 SLP209 T01350063

10-Day Weather Forecast

Almanac

Astronomy

Dec. 03, 2016 Rise Set
Actual Time
Civil Twilight
Nautical Twilight
Astronomical Twilight
Moon
Length of Visible Light
Length of Day
Tomorrow will be .
, % of the Moon is Illuminated

Today's Extremes

State Highs State Lows

Community

WunderPhotos

Upload Photos

1,955,432 photos uploaded!

WunderBlog® & News

Nearby

Air Quality

  Air Quality AQ Index Pollutant
Not available.

Snow Depth

Station Depth Elevation

Earthquake Activity

City Distance Mag. Time & Date
Minimum magnitude displayed is 2.5.

Coastal Water Temperatures

Place Temperature

Stations

Nearby Weather Stations

Station Location Temp. Windchill Dew Point Humidity Wind Precip. Elev Updated Type
                   

Watches & Warnings

There are currently no watches in effect.